Time;durP1;ratioP1;P1;durP2;ratioP2;P2;SDS_P1;SDS_P2;PMS_P1;PMS_P2;Temp;Humidity;BMP_temperature;BMP_pressure;BME280_temperature;BME280_humidity;BME280_pressure;Samples;Min_cycle;Max_cycle;Signal;HPM_P1;HPM_P2
2022/10/04 00:00:24;;;;;;;;;;;;;;;21.95;43.36;100717.85;103795;1317;62123;-86
2022/10/04 00:02:50;;;;;;;;;;;;;;;21.95;43.31;100723.96;104175;1316;76670;-84
2022/10/04 00:05:16;;;;;;;;;;;;;;;21.95;43.21;100720.91;103937;1317;62156;-83
2022/10/04 00:07:46;;;;;;;;;;;;;;;21.95;43.14;100720.74;104122;1316;62085;-88
2022/10/04 00:10:17;;;;;;;;;;;;;;;21.95;43.26;100716.62;103960;1317;72790;-84
2022/10/04 00:12:48;;;;;;;;;;;;;;;21.94;43.22;100719.15;104104;1316;76592;-84
2022/10/04 00:15:18;;;;;;;;;;;;;;;21.94;43.21;100715.41;104123;1316;62110;-83
2022/10/04 00:17:44;;;;;;;;;;;;;;;21.94;43.24;100718.83;103926;1316;62253;-84
2022/10/04 00:20:29;;;;;;;;;;;;;;;21.94;43.16;100721.66;103860;1317;63293;-84
2022/10/04 00:23:13;;;;;;;;;;;;;;;21.94;43.14;100730.13;103934;1317;74639;-85
2022/10/04 00:25:38;;;;;;;;;;;;;;;21.94;43.22;100734.38;104159;1316;62019;-84
2022/10/04 00:28:33;;;;;;;;;;;;;;;21.94;43.09;100737.83;104139;1311;62185;-84
2022/10/04 00:31:19;;;;;;;;;;;;;;;21.94;43.24;100742.66;104530;1309;73869;-84
2022/10/04 00:33:52;;;;;;;;;;;;;;;21.93;43.18;100739.45;104634;1309;75546;-85
2022/10/04 00:36:23;;;;;;;;;;;;;;;21.94;43.10;100740.66;104634;1309;62084;-85
2022/10/04 00:39:07;;;;;;;;;;;;;;;21.94;43.10;100738.89;104449;1308;62167;-84
2022/10/04 00:41:34;;;;;;;;;;;;;;;21.93;43.04;100738.19;104524;1308;72886;-85
2022/10/04 00:44:00;;;;;;;;;;;;;;;21.93;43.24;100733.17;104354;1310;75551;-83
2022/10/04 00:46:26;;;;;;;;;;;;;;;21.93;43.17;100735.91;104547;1308;62073;-84
2022/10/04 00:48:52;;;;;;;;;;;;;;;21.93;43.17;100734.51;104529;1308;62219;-87
2022/10/04 00:51:20;;;;;;;;;;;;;;;21.93;43.01;100733.59;104442;1309;62111;-84
2022/10/04 00:53:48;;;;;;;;;;;;;;;21.93;42.90;100735.38;104521;1308;75585;-84
2022/10/04 00:56:16;;;;;;;;;;;;;;;21.92;42.96;100741.70;104502;1311;62110;-81
2022/10/04 00:58:48;;;;;;;;;;;;;;;21.92;42.88;100739.55;104489;1308;62038;-83
2022/10/04 01:01:16;;;;;;;;;;;;;;;21.92;42.95;100735.78;104478;1309;71943;-84
2022/10/04 01:03:42;;;;;;;;;;;;;;;21.92;42.95;100735.64;104389;1308;76770;-84
2022/10/04 01:06:09;;;;;;;;;;;;;;;21.92;43.00;100733.33;104496;1308;62125;-84
2022/10/04 01:08:36;;;;;;;;;;;;;;;21.91;42.91;100740.33;104503;1309;61977;-85
2022/10/04 01:11:03;;;;;;;;;;;;;;;21.92;42.90;100744.24;104509;1309;74074;-83
2022/10/04 01:13:38;;;;;;;;;;;;;;;21.91;42.78;100742.53;104474;1311;62113;-85
2022/10/04 01:16:21;;;;;;;;;;;;;;;21.91;42.74;100742.88;104406;1311;63022;-83
2022/10/04 01:18:47;;;;;;;;;;;;;;;21.91;42.77;100748.25;104500;1308;62203;-83
2022/10/04 01:21:15;;;;;;;;;;;;;;;21.90;42.82;100746.68;104478;1308;62138;-83
2022/10/04 01:23:48;;;;;;;;;;;;;;;21.91;42.87;100751.67;104493;1310;75538;-84
2022/10/04 01:26:31;;;;;;;;;;;;;;;21.91;42.76;100755.61;104561;1308;62020;-84
2022/10/04 01:29:16;;;;;;;;;;;;;;;21.90;42.69;100759.76;104570;1308;62197;-84
2022/10/04 01:31:45;;;;;;;;;;;;;;;21.90;42.80;100762.99;104519;1311;72711;-82
2022/10/04 01:34:15;;;;;;;;;;;;;;;21.90;42.69;100773.95;104501;1308;76036;-83
2022/10/04 01:36:41;;;;;;;;;;;;;;;21.90;42.78;100773.95;104543;1308;62168;-83
2022/10/04 01:39:07;;;;;;;;;;;;;;;21.90;42.89;100767.86;104388;1311;62117;-85
2022/10/04 01:41:32;;;;;;;;;;;;;;;21.89;42.66;100772.36;104458;1308;62111;-83
2022/10/04 01:44:06;;;;;;;;;;;;;;;21.90;42.67;100771.45;104490;1311;61953;-84
2022/10/04 01:46:33;;;;;;;;;;;;;;;21.90;42.77;100775.38;104403;1311;61159;-85
2022/10/04 01:49:00;;;;;;;;;;;;;;;21.90;42.69;100782.55;104556;1307;62002;-84
2022/10/04 01:51:26;;;;;;;;;;;;;;;21.89;42.63;100779.91;104483;1308;74140;-85
2022/10/04 01:53:54;;;;;;;;;;;;;;;21.89;42.69;100777.79;104241;1312;75548;-84
2022/10/04 01:56:21;;;;;;;;;;;;;;;21.89;42.53;100776.48;104527;1308;60913;-85
2022/10/04 01:58:53;;;;;;;;;;;;;;;21.89;42.56;100777.95;104487;1308;61973;-84
2022/10/04 02:01:23;;;;;;;;;;;;;;;21.89;42.55;100777.81;104526;1308;72562;-84
2022/10/04 02:03:54;;;;;;;;;;;;;;;21.89;42.55;100776.36;104462;1308;75612;-84
2022/10/04 02:06:19;;;;;;;;;;;;;;;21.88;42.46;100778.54;104538;1308;62193;-84
2022/10/04 02:08:46;;;;;;;;;;;;;;;21.89;42.47;100779.59;104478;1308;62196;-83
2022/10/04 02:11:15;;;;;;;;;;;;;;;21.88;42.38;100782.67;104482;1308;62067;-84
2022/10/04 02:13:40;;;;;;;;;;;;;;;21.89;42.46;100781.40;104473;1309;75483;-85
2022/10/04 02:16:11;;;;;;;;;;;;;;;21.88;42.60;100783.95;104538;1308;62113;-84
2022/10/04 02:18:37;;;;;;;;;;;;;;;21.88;42.33;100785.01;104368;1311;63636;-83
2022/10/04 02:21:04;;;;;;;;;;;;;;;21.87;42.30;100782.02;104522;1308;62086;-82
2022/10/04 02:23:32;;;;;;;;;;;;;;;21.87;42.34;100780.99;104391;1311;75935;-84
2022/10/04 02:25:58;;;;;;;;;;;;;;;21.86;42.37;100783.00;104473;1308;62153;-84
2022/10/04 02:28:23;;;;;;;;;;;;;;;21.87;42.34;100780.63;104480;1309;62232;-85
2022/10/04 02:33:39;;;;;;;;;;;;;;;21.86;42.32;100788.73;104491;1306;75486;-84
2022/10/04 02:36:05;;;;;;;;;;;;;;;21.86;42.31;100792.86;104512;1311;62148;-88
2022/10/04 02:38:54;;;;;;;;;;;;;;;21.87;42.42;100797.14;104406;1310;62122;-84
2022/10/04 02:41:38;;;;;;;;;;;;;;;21.86;42.20;100796.65;104400;1311;73894;-84
2022/10/04 02:44:21;;;;;;;;;;;;;;;21.86;42.25;100803.27;104517;1311;75611;-84
2022/10/04 02:46:53;;;;;;;;;;;;;;;21.86;42.22;100804.52;104546;1307;62095;-84
2022/10/04 02:49:21;;;;;;;;;;;;;;;21.86;42.29;100804.02;104542;1308;61957;-84
2022/10/04 02:51:56;;;;;;;;;;;;;;;21.86;42.24;100803.45;104528;1308;72837;-84
2022/10/04 02:54:28;;;;;;;;;;;;;;;21.85;42.27;100806.00;104404;1309;76825;-84
2022/10/04 02:56:55;;;;;;;;;;;;;;;21.86;42.27;100805.81;104507;1311;62089;-84
2022/10/04 02:59:21;;;;;;;;;;;;;;;21.85;42.30;100808.39;104401;1308;62145;-84
2022/10/04 03:01:56;;;;;;;;;;;;;;;21.85;42.21;100810.52;104493;1308;62172;-88
2022/10/04 03:04:24;;;;;;;;;;;;;;;21.85;42.25;100810.52;104521;1308;75445;-83
2022/10/04 03:06:50;;;;;;;;;;;;;;;21.85;42.06;100811.77;104502;1308;62196;-83
2022/10/04 03:09:16;;;;;;;;;;;;;;;21.85;42.19;100812.00;104366;1311;62420;-84
2022/10/04 03:11:42;;;;;;;;;;;;;;;21.85;42.25;100813.77;104483;1308;61998;-84
2022/10/04 03:14:19;;;;;;;;;;;;;;;21.84;42.04;100818.27;104366;1308;62120;-85
2022/10/04 03:16:45;;;;;;;;;;;;;;;21.84;42.24;100822.75;104434;1311;62148;-85
2022/10/04 03:19:11;;;;;;;;;;;;;;;21.84;42.20;100823.51;104465;1308;62180;-85
2022/10/04 03:21:37;;;;;;;;;;;;;;;21.84;42.08;100826.37;104497;1309;62092;-86
2022/10/04 03:24:06;;;;;;;;;;;;;;;21.84;41.98;100831.74;104439;1308;62063;-83
2022/10/04 03:26:35;;;;;;;;;;;;;;;21.84;41.91;100834.99;104413;1311;62073;-84
2022/10/04 03:29:01;;;;;;;;;;;;;;;21.82;41.97;100836.89;104539;1308;62085;-85
2022/10/04 03:31:27;;;;;;;;;;;;;;;21.80;41.94;100833.33;104488;1308;71789;-83
2022/10/04 03:33:54;;;;;;;;;;;;;;;21.77;41.86;100839.41;104507;1311;62102;-83
2022/10/04 03:36:19;;;;;;;;;;;;;;;21.75;41.84;100837.77;104493;1308;62124;-83
2022/10/04 03:38:45;;;;;;;;;;;;;;;21.72;41.79;100842.27;104488;1308;62066;-84
2022/10/04 03:41:13;;;;;;;;;;;;;;;21.69;41.76;100851.42;104380;1309;62150;-83
2022/10/04 03:43:44;;;;;;;;;;;;;;;21.67;41.66;100861.30;104475;1308;62109;-86
2022/10/04 03:46:09;;;;;;;;;;;;;;;21.65;41.55;100863.07;104476;1308;62185;-87
2022/10/04 03:48:50;;;;;;;;;;;;;;;21.62;41.39;100862.88;104513;1308;62167;-84
2022/10/04 03:51:18;;;;;;;;;;;;;;;21.61;41.64;100865.67;104283;1311;72909;-87
2022/10/04 03:53:45;;;;;;;;;;;;;;;21.59;41.33;100865.61;104386;1311;76174;-87
2022/10/04 03:56:12;;;;;;;;;;;;;;;21.57;41.33;100862.36;104412;1311;61977;-82
2022/10/04 03:58:38;;;;;;;;;;;;;;;21.55;41.41;100869.27;104400;1311;62113;-85
2022/10/04 04:01:10;;;;;;;;;;;;;;;21.55;41.42;100874.68;104396;1311;62192;-83
2022/10/04 04:03:41;;;;;;;;;;;;;;;21.53;41.29;100881.08;104456;1308;76741;-83
2022/10/04 04:06:08;;;;;;;;;;;;;;;21.51;41.38;100883.70;104513;1308;62028;-85
2022/10/04 04:08:38;;;;;;;;;;;;;;;21.49;41.26;100887.41;104435;1311;62021;-86
2022/10/04 04:11:04;;;;;;;;;;;;;;;21.48;41.23;100888.77;104389;1311;72669;-87
2022/10/04 04:13:37;;;;;;;;;;;;;;;21.46;41.12;100893.88;104533;1308;62026;-86
2022/10/04 04:16:04;;;;;;;;;;;;;;;21.45;41.19;100896.13;104452;1308;62081;-85
2022/10/04 04:18:31;;;;;;;;;;;;;;;21.45;40.88;100892.74;104549;1308;61992;-84
2022/10/04 04:20:58;;;;;;;;;;;;;;;21.45;41.05;100892.59;104433;1308;72609;-84
2022/10/04 04:23:31;;;;;;;;;;;;;;;21.44;40.86;100895.30;104531;1308;76762;-83
2022/10/04 04:26:11;;;;;;;;;;;;;;;21.44;40.96;100895.29;104340;1310;62084;-82
2022/10/04 04:28:38;;;;;;;;;;;;;;;21.43;40.97;100896.77;104383;1309;62101;-83
2022/10/04 04:31:05;;;;;;;;;;;;;;;21.42;40.76;100899.02;104346;1309;72912;-83
2022/10/04 04:33:38;;;;;;;;;;;;;;;21.40;40.84;100902.66;104390;1308;76724;-83
2022/10/04 04:36:07;;;;;;;;;;;;;;;21.39;40.94;100902.81;104514;1309;62194;-83
2022/10/04 04:38:34;;;;;;;;;;;;;;;21.37;40.96;100911.33;104416;1309;62038;-84
2022/10/04 04:41:06;;;;;;;;;;;;;;;21.36;40.94;100918.27;104468;1309;74351;-83
2022/10/04 04:43:31;;;;;;;;;;;;;;;21.33;40.90;100920.41;104268;1309;73820;-83
2022/10/04 04:45:58;;;;;;;;;;;;;;;21.32;40.84;100921.08;104269;1308;62111;-83
2022/10/04 04:48:24;;;;;;;;;;;;;;;21.29;40.88;100926.48;104298;1308;62222;-84
2022/10/04 04:50:54;;;;;;;;;;;;;;;21.28;40.91;100928.87;104225;1309;62184;-84
2022/10/04 04:53:25;;;;;;;;;;;;;;;21.26;40.78;100933.09;104329;1309;75656;-85
2022/10/04 04:56:01;;;;;;;;;;;;;;;21.24;40.85;100942.34;104442;1308;62065;-84
2022/10/04 04:58:28;;;;;;;;;;;;;;;21.19;40.87;100941.41;104398;1308;61954;-84
2022/10/04 05:00:56;;;;;;;;;;;;;;;21.13;40.66;100945.63;104298;1308;72449;-83
2022/10/04 05:03:22;;;;;;;;;;;;;;;21.08;40.74;100951.16;104428;1308;76620;-83
2022/10/04 05:05:49;;;;;;;;;;;;;;;21.03;40.68;100953.84;104423;1308;60307;-83
2022/10/04 05:08:22;;;;;;;;;;;;;;;21.02;40.87;100953.89;104277;1308;60674;-83
2022/10/04 05:10:57;;;;;;;;;;;;;;;21.05;41.09;100957.97;104251;1308;73237;-83
2022/10/04 05:13:29;;;;;;;;;;;;;;;21.09;40.99;100964.88;104378;1308;77363;-84
2022/10/04 05:15:55;;;;;;;;;;;;;;;21.12;41.08;100970.73;104320;1308;61934;-81
2022/10/04 05:18:28;;;;;;;;;;;;;;;21.15;41.03;100970.93;104313;1309;62055;-83
2022/10/04 05:20:54;;;;;;;;;;;;;;;21.18;41.01;100976.09;104430;1308;72966;-81
2022/10/04 05:23:19;;;;;;;;;;;;;;;21.19;41.00;100982.24;104270;1308;62236;-83
2022/10/04 05:25:45;;;;;;;;;;;;;;;21.21;40.95;100986.54;104377;1309;60911;-83
2022/10/04 05:28:11;;;;;;;;;;;;;;;21.22;40.90;100990.61;104256;1309;62104;-83
2022/10/04 05:30:37;;;;;;;;;;;;;;;21.24;41.03;100998.91;104311;1309;60372;-82
2022/10/04 05:33:06;;;;;;;;;;;;;;;21.25;40.95;101002.21;104245;1308;62135;-83
2022/10/04 05:36:08;;;;;;;;;;;;;;;21.26;41.05;101012.19;104418;1309;61966;-84
2022/10/04 05:38:53;;;;;;;;;;;;;;;21.28;40.88;101016.91;103818;1317;62642;-83
2022/10/04 05:41:22;;;;;;;;;;;;;;;21.28;41.00;101023.88;103779;1317;72891;-83
2022/10/04 05:43:51;;;;;;;;;;;;;;;21.28;40.84;101026.02;103799;1317;75468;-83
2022/10/04 05:46:27;;;;;;;;;;;;;;;21.29;40.92;101027.95;103700;1314;60680;-83
2022/10/04 05:48:53;;;;;;;;;;;;;;;21.29;40.84;101033.33;103835;1315;61945;-84
2022/10/04 05:51:22;;;;;;;;;;;;;;;21.29;40.95;101033.30;103882;1317;60982;-84
2022/10/04 05:53:49;;;;;;;;;;;;;;;21.29;40.96;101033.49;104405;1314;76657;-83
2022/10/04 05:56:31;;;;;;;;;;;;;;;21.24;40.74;101033.64;103569;1317;61883;-85
2022/10/04 05:59:17;;;;;;;;;;;;;;;21.16;40.90;101035.42;103004;1314;61998;-83
2022/10/04 06:01:48;;;;;;;;;;;;;;;21.12;40.89;101044.81;102879;1317;73002;-83
2022/10/04 06:04:29;;;;;;;;;;;;;;;21.05;40.56;101046.39;103745;1314;76823;-83
2022/10/04 06:06:56;;;;;;;;;;;;;;;20.95;40.61;101049.56;103799;1314;64218;-84
2022/10/04 06:09:24;;;;;;;;;;;;;;;20.95;40.73;101057.80;103648;1317;62134;-82
2022/10/04 06:11:49;;;;;;;;;;;;;;;20.98;40.73;101061.89;103802;1315;73197;-84
2022/10/04 06:14:18;;;;;;;;;;;;;;;21.01;40.78;101066.67;104244;1309;62180;-84
2022/10/04 06:16:43;;;;;;;;;;;;;;;21.03;41.03;101069.73;104478;1308;64267;-84
2022/10/04 06:19:24;;;;;;;;;;;;;;;21.05;40.80;101070.31;104324;1306;62100;-83
2022/10/04 06:21:51;;;;;;;;;;;;;;;21.07;40.73;101072.69;104423;1308;74060;-83
2022/10/04 06:24:21;;;;;;;;;;;;;;;21.10;40.73;101075.93;104612;1308;76409;-81
2022/10/04 06:26:47;;;;;;;;;;;;;;;21.12;40.85;101078.48;104701;1307;62080;-81
2022/10/04 06:29:13;;;;;;;;;;;;;;;21.14;40.89;101080.52;104274;1309;60229;-83
2022/10/04 06:31:39;;;;;;;;;;;;;;;21.15;40.79;101085.80;104346;1309;63439;-83
2022/10/04 06:34:17;;;;;;;;;;;;;;;21.15;40.75;101082.17;104326;1308;62231;-85
2022/10/04 06:36:42;;;;;;;;;;;;;;;21.16;40.69;101090.16;104625;1308;61909;-83
2022/10/04 06:39:17;;;;;;;;;;;;;;;21.17;40.70;101097.27;104439;1308;62104;-84
2022/10/04 06:41:49;;;;;;;;;;;;;;;21.18;40.71;101101.89;104327;1309;73938;-82
2022/10/04 06:44:21;;;;;;;;;;;;;;;21.19;40.62;101103.45;104412;1307;76964;-83
2022/10/04 06:46:50;;;;;;;;;;;;;;;21.19;40.74;101104.48;104389;1309;62049;-83
2022/10/04 06:49:27;;;;;;;;;;;;;;;21.19;40.61;101108.25;104336;1309;61977;-83
2022/10/04 06:52:00;;;;;;;;;;;;;;;21.16;40.57;101110.25;104550;1308;72823;-82
2022/10/04 06:54:38;;;;;;;;;;;;;;;21.09;40.56;101114.63;104263;1308;77274;-83
2022/10/04 06:57:10;;;;;;;;;;;;;;;20.96;40.34;101118.35;104252;1309;62033;-83
2022/10/04 06:59:45;;;;;;;;;;;;;;;20.82;40.16;101117.86;104159;1308;62198;-83
2022/10/04 07:02:14;;;;;;;;;;;;;;;20.78;40.01;101118.30;104380;1309;75119;-82
2022/10/04 07:04:45;;;;;;;;;;;;;;;20.78;40.14;101122.56;104408;1306;75663;-82
2022/10/04 07:07:34;;;;;;;;;;;;;;;20.78;40.11;101124.52;104348;1308;61977;-84
2022/10/04 07:10:02;;;;;;;;;;;;;;;20.77;40.23;101128.89;104449;1308;60588;-83
2022/10/04 07:12:28;;;;;;;;;;;;;;;20.76;40.04;101127.88;104356;1309;73478;-82
2022/10/04 07:14:54;;;;;;;;;;;;;;;20.70;40.01;101128.48;104190;1308;62235;-83
2022/10/04 07:17:23;;;;;;;;;;;;;;;20.73;40.15;101132.35;104412;1307;60445;-82
2022/10/04 07:19:49;;;;;;;;;;;;;;;20.79;40.25;101137.73;104210;1309;62370;-83
2022/10/04 07:22:20;;;;;;;;;;;;;;;20.85;40.15;101142.68;104313;1309;62089;-83
2022/10/04 07:24:56;;;;;;;;;;;;;;;20.90;40.16;101149.32;104411;1308;77391;-83
2022/10/04 07:27:31;;;;;;;;;;;;;;;20.94;40.24;101152.48;104414;1308;62259;-84
2022/10/04 07:30:01;;;;;;;;;;;;;;;20.98;40.33;101152.58;104275;1309;60236;-82
2022/10/04 07:32:27;;;;;;;;;;;;;;;21.01;40.25;101154.00;104232;1308;75196;-84
2022/10/04 07:34:54;;;;;;;;;;;;;;;21.03;40.23;101153.00;104308;1307;61999;-82
2022/10/04 07:37:20;;;;;;;;;;;;;;;21.04;40.13;101155.74;104340;1309;61999;-85
2022/10/04 07:39:53;;;;;;;;;;;;;;;21.07;40.14;101159.34;104335;1309;62082;-84
2022/10/04 07:42:27;;;;;;;;;;;;;;;21.08;39.99;101159.62;104306;1308;73578;-84
2022/10/04 07:44:55;;;;;;;;;;;;;;;21.10;40.12;101162.54;104252;1308;75655;-82
2022/10/04 07:47:22;;;;;;;;;;;;;;;21.11;40.05;101160.87;104394;1308;62073;-81
2022/10/04 07:49:52;;;;;;;;;;;;;;;21.13;40.09;101162.17;104409;1308;61965;-83
2022/10/04 07:52:21;;;;;;;;;;;;;;;21.14;39.83;101163.35;104343;1307;72722;-83
2022/10/04 07:55:16;;;;;;;;;;;;;;;21.15;39.98;101155.79;104363;1308;75482;-84
2022/10/04 07:57:47;;;;;;;;;;;;;;;21.16;39.97;101159.98;103766;1316;60500;-83
2022/10/04 08:00:48;;;;;;;;;;;;;;;21.14;39.87;101158.90;103866;1314;62405;-83
2022/10/04 08:03:40;;;;;;;;;;;;;;;21.07;39.84;101162.15;103552;1313;73110;-85
2022/10/04 08:06:09;;;;;;;;;;;;;;;21.00;39.47;101166.38;103781;1316;78203;-83
2022/10/04 08:08:55;;;;;;;;;;;;;;;20.80;39.21;101166.80;103588;1315;60960;-82
2022/10/04 08:11:42;;;;;;;;;;;;;;;20.49;38.88;101168.55;103856;1316;62125;-84
2022/10/04 08:14:27;;;;;;;;;;;;;;;20.48;39.21;101167.21;103745;1316;73027;-84
2022/10/04 08:16:55;;;;;;;;;;;;;;;20.54;39.18;101166.40;103745;1316;78373;-82
2022/10/04 08:19:35;;;;;;;;;;;;;;;20.61;39.27;101175.11;103752;1316;62106;-83
2022/10/04 08:22:12;;;;;;;;;;;;;;;20.68;39.32;101170.41;103748;1314;61999;-81
2022/10/04 08:24:42;;;;;;;;;;;;;;;20.75;39.30;101172.86;103520;1317;73247;-85
2022/10/04 08:27:21;;;;;;;;;;;;;;;20.80;39.24;101170.73;103834;1314;76495;-84
2022/10/04 08:29:57;;;;;;;;;;;;;;;20.87;39.33;101172.42;103821;1316;61891;-84
2022/10/04 08:32:40;;;;;;;;;;;;;;;20.92;39.43;101177.48;103883;1314;61764;-82
2022/10/04 08:35:15;;;;;;;;;;;;;;;20.96;39.36;101175.27;104093;1309;72872;-84
2022/10/04 08:37:59;;;;;;;;;;;;;;;20.99;39.40;101173.08;104408;1308;78139;-84
2022/10/04 08:40:42;;;;;;;;;;;;;;;21.01;39.06;101175.10;104377;1308;62009;-83
2022/10/04 08:43:48;;;;;;;;;;;;;;;21.02;39.06;101176.66;104392;1308;61996;-82
2022/10/04 08:46:26;;;;;;;;;;;;;;;21.03;39.04;101176.09;103776;1314;73417;-82
2022/10/04 08:49:10;;;;;;;;;;;;;;;21.01;39.05;101175.80;103823;1314;75509;-84
2022/10/04 08:51:36;;;;;;;;;;;;;;;21.02;39.09;101178.25;104105;1308;61893;-82
2022/10/04 08:54:12;;;;;;;;;;;;;;;21.05;38.87;101182.55;104450;1308;62102;-83
2022/10/04 08:56:38;;;;;;;;;;;;;;;21.06;38.93;101183.70;104252;1306;71734;-82
2022/10/04 08:59:23;;;;;;;;;;;;;;;21.06;39.04;101187.27;104311;1308;61987;-82
2022/10/04 09:02:06;;;;;;;;;;;;;;;21.02;38.72;101188.45;104260;1307;60185;-83
2022/10/04 09:04:40;;;;;;;;;;;;;;;20.93;38.34;101187.95;104318;1308;62091;-83
2022/10/04 09:07:37;;;;;;;;;;;;;;;20.85;38.36;101186.14;104391;1308;74638;-83
2022/10/04 09:10:17;;;;;;;;;;;;;;;20.82;38.16;101186.00;104206;1314;75645;-83
2022/10/04 09:12:48;;;;;;;;;;;;;;;20.63;37.95;101185.55;103959;1314;60836;-84
2022/10/04 09:15:29;;;;;;;;;;;;;;;20.41;38.09;101188.17;104624;1314;60562;-84
2022/10/04 09:18:00;;;;;;;;;;;;;;;20.22;37.89;101193.25;104339;1314;74160;-83
2022/10/04 09:20:31;;;;;;;;;;;;;;;20.02;37.65;101193.44;103919;1314;75579;-84
2022/10/04 09:23:10;;;;;;;;;;;;;;;20.02;37.99;101190.72;103863;1315;62135;-84
2022/10/04 09:25:45;;;;;;;;;;;;;;;20.14;38.24;101193.42;103804;1315;62236;-83
2022/10/04 09:28:35;;;;;;;;;;;;;;;20.26;38.34;101197.12;104495;1314;72682;-83
2022/10/04 09:31:07;;;;;;;;;;;;;;;20.39;38.30;101198.46;103974;1314;76042;-82
2022/10/04 09:33:33;;;;;;;;;;;;;;;20.51;38.38;101197.77;104173;1314;63629;-82
2022/10/04 09:36:12;;;;;;;;;;;;;;;20.61;38.60;101200.00;103910;1314;62115;-83
2022/10/04 09:38:57;;;;;;;;;;;;;;;20.70;38.42;101199.05;103774;1315;72863;-82
2022/10/04 09:41:41;;;;;;;;;;;;;;;20.79;38.45;101194.73;104109;1314;76535;-83
2022/10/04 09:44:12;;;;;;;;;;;;;;;20.85;38.68;101193.46;103906;1315;61957;-84
2022/10/04 09:46:56;;;;;;;;;;;;;;;20.89;38.49;101193.61;104000;1308;62102;-83
2022/10/04 09:49:43;;;;;;;;;;;;;;;20.91;38.57;101198.81;104380;1308;73929;-83
2022/10/04 09:52:17;;;;;;;;;;;;;;;20.91;38.37;101199.16;104799;1308;76545;-84
2022/10/04 09:55:03;;;;;;;;;;;;;;;20.89;38.28;101204.14;104212;1308;60677;-84
2022/10/04 09:57:40;;;;;;;;;;;;;;;20.86;38.19;101207.58;104413;1308;62082;-84
2022/10/04 10:00:23;;;;;;;;;;;;;;;20.83;38.20;101199.01;104328;1308;73790;-82
2022/10/04 10:03:07;;;;;;;;;;;;;;;20.79;38.00;101197.64;103780;1309;691385;-84
2022/10/04 10:05:51;;;;;;;;;;;;;;;20.74;37.85;101202.23;104296;1308;61816;-83
2022/10/04 10:08:17;;;;;;;;;;;;;;;20.69;37.77;101199.88;104273;1308;62022;-84
2022/10/04 10:13:42;;;;;;;;;;;;;;;20.59;37.54;101203.65;104385;1308;76579;-83
2022/10/04 10:16:28;;;;;;;;;;;;;;;20.59;37.58;101202.41;104411;1307;62191;-82
2022/10/04 10:19:13;;;;;;;;;;;;;;;20.50;37.33;101206.96;105240;1308;60426;-81
2022/10/04 10:21:57;;;;;;;;;;;;;;;20.49;37.47;101207.73;105119;1310;72948;-82
2022/10/04 10:24:32;;;;;;;;;;;;;;;20.57;37.59;101209.50;105201;1307;75683;-81
2022/10/04 10:27:16;;;;;;;;;;;;;;;20.67;37.76;101210.90;105374;1308;61184;-82
2022/10/04 10:29:52;;;;;;;;;;;;;;;20.75;37.55;101206.48;104317;1309;61945;-82
2022/10/04 10:32:46;;;;;;;;;;;;;;;20.83;37.70;101210.77;104289;1308;74163;-82
2022/10/04 10:35:14;;;;;;;;;;;;;;;20.93;37.81;101212.15;103745;1316;77358;-82
2022/10/04 10:37:44;;;;;;;;;;;;;;;20.97;37.76;101211.86;103583;1317;62230;-83
2022/10/04 10:40:32;;;;;;;;;;;;;;;21.02;37.66;101210.13;103878;1317;61820;-82
2022/10/04 10:43:04;;;;;;;;;;;;;;;21.07;37.58;101209.27;103546;1316;73917;-84
2022/10/04 10:45:32;;;;;;;;;;;;;;;21.09;37.66;101206.98;103681;1316;75856;-83
2022/10/04 10:48:05;;;;;;;;;;;;;;;21.09;37.62;101206.77;103643;1317;62322;-83
2022/10/04 10:51:01;;;;;;;;;;;;;;;21.10;37.54;101213.54;103747;1316;61969;-84
2022/10/04 10:53:40;;;;;;;;;;;;;;;21.10;37.46;101215.50;103602;1317;74487;-83
2022/10/04 10:56:25;;;;;;;;;;;;;;;21.10;37.53;101214.41;103996;1317;75623;-83
2022/10/04 10:59:00;;;;;;;;;;;;;;;21.09;37.67;101213.23;103691;1316;60380;-83
2022/10/04 11:01:45;;;;;;;;;;;;;;;21.08;37.60;101215.27;103584;1317;61635;-84
2022/10/04 11:04:13;;;;;;;;;;;;;;;21.02;37.42;101209.96;103797;1316;71834;-83
2022/10/04 11:06:58;;;;;;;;;;;;;;;20.97;37.37;101214.72;104044;1317;76651;-83
2022/10/04 11:09:24;;;;;;;;;;;;;;;20.86;37.38;101211.70;104118;1316;60436;-83
2022/10/04 11:11:49;;;;;;;;;;;;;;;20.84;37.38;101208.95;104482;1308;60523;-84
2022/10/04 11:14:21;;;;;;;;;;;;;;;20.88;37.52;101208.32;105093;1309;60498;-82
2022/10/04 11:16:51;;;;;;;;;;;;;;;20.94;37.43;101206.00;105216;1308;75850;-83
2022/10/04 11:19:17;;;;;;;;;;;;;;;20.98;37.59;101207.00;104707;1309;60812;-84
2022/10/04 11:21:52;;;;;;;;;;;;;;;21.02;37.65;101206.36;104430;1309;62232;-84
2022/10/04 11:24:30;;;;;;;;;;;;;;;21.06;37.65;101204.16;104265;1309;72931;-83
2022/10/04 11:27:16;;;;;;;;;;;;;;;21.06;37.42;101205.19;104363;1308;75537;-84
2022/10/04 11:29:41;;;;;;;;;;;;;;;21.05;37.52;101205.30;105189;1308;60285;-84
2022/10/04 11:32:12;;;;;;;;;;;;;;;21.06;37.31;101203.26;105342;1307;60273;-84
2022/10/04 11:34:58;;;;;;;;;;;;;;;21.07;37.39;101205.65;105046;1308;73913;-84
2022/10/04 11:38:03;;;;;;;;;;;;;;;21.07;37.24;101206.55;104341;1308;76578;-83
2022/10/04 11:40:30;;;;;;;;;;;;;;;21.09;37.32;101206.41;103899;1316;61950;-84
2022/10/04 11:43:14;;;;;;;;;;;;;;;21.12;37.32;101207.84;104801;1316;61844;-84
2022/10/04 11:45:54;;;;;;;;;;;;;;;21.15;37.30;101204.11;104570;1316;72830;-84
2022/10/04 11:48:20;;;;;;;;;;;;;;;21.17;37.25;101204.48;104153;1317;76179;-83
2022/10/04 11:51:21;;;;;;;;;;;;;;;21.19;37.24;101201.51;103634;1317;61259;-82
2022/10/04 11:54:06;;;;;;;;;;;;;;;21.21;37.10;101201.72;102825;1323;61966;-82
2022/10/04 11:56:35;;;;;;;;;;;;;;;21.22;37.20;101203.11;102927;1323;74076;-84
2022/10/04 11:59:10;;;;;;;;;;;;;;;21.21;37.14;101203.38;102827;1323;75908;-82
2022/10/04 12:01:37;;;;;;;;;;;;;;;21.17;36.73;101204.30;102686;1326;60404;-81
2022/10/04 12:04:28;;;;;;;;;;;;;;;21.12;36.71;101201.58;102938;1325;62061;-83
2022/10/04 12:07:07;;;;;;;;;;;;;;;21.11;36.86;101206.15;102830;1325;73967;-82
2022/10/04 12:09:48;;;;;;;;;;;;;;;21.13;36.94;101205.31;103181;1323;75841;-81
2022/10/04 12:12:36;;;;;;;;;;;;;;;21.16;37.07;101202.98;103279;1320;63398;-82
2022/10/04 12:15:03;;;;;;;;;;;;;;;21.19;37.05;101202.42;103843;1316;60490;-83
2022/10/04 12:17:32;;;;;;;;;;;;;;;21.21;36.94;101201.90;103660;1316;72927;-83
2022/10/04 12:20:16;;;;;;;;;;;;;;;21.23;36.79;101203.35;103508;1317;75777;-84
2022/10/04 12:22:42;;;;;;;;;;;;;;;21.25;36.84;101203.44;103690;1317;61973;-82
2022/10/04 12:25:18;;;;;;;;;;;;;;;21.26;36.80;101200.64;103697;1317;62329;-82
2022/10/04 12:27:47;;;;;;;;;;;;;;;21.28;36.92;101198.95;103908;1309;72858;-82
2022/10/04 12:30:20;;;;;;;;;;;;;;;21.28;36.70;101204.33;104454;1308;76181;-83
2022/10/04 12:32:54;;;;;;;;;;;;;;;21.29;36.77;101202.67;104321;1309;62107;-82
2022/10/04 12:35:29;;;;;;;;;;;;;;;21.29;36.78;101205.55;104401;1308;61977;-80
2022/10/04 12:38:24;;;;;;;;;;;;;;;21.30;36.80;101207.79;104301;1309;72150;-83
2022/10/04 12:40:52;;;;;;;;;;;;;;;21.31;36.73;101208.45;103904;1309;76795;-82
2022/10/04 12:43:24;;;;;;;;;;;;;;;21.32;36.73;101211.27;104281;1309;62084;-83
2022/10/04 12:45:55;;;;;;;;;;;;;;;21.32;36.83;101214.13;105395;1309;60401;-83
2022/10/04 12:48:20;;;;;;;;;;;;;;;21.32;36.75;101210.66;104422;1309;72831;-83
2022/10/04 12:51:09;;;;;;;;;;;;;;;21.32;36.77;101210.46;104415;1309;62072;-83
2022/10/04 12:53:45;;;;;;;;;;;;;;;21.32;36.71;101210.86;104432;1309;62110;-83
2022/10/04 12:56:19;;;;;;;;;;;;;;;21.33;36.64;101213.69;104438;1308;62527;-82
2022/10/04 12:59:04;;;;;;;;;;;;;;;21.33;36.64;101217.80;104416;1309;72791;-83
2022/10/04 13:01:49;;;;;;;;;;;;;;;21.31;36.51;101219.70;104530;1308;76547;-83